Time;durP1;ratioP1;P1;durP2;ratioP2;P2;SDS_P1;SDS_P2;PMS_P1;PMS_P2;Temp;Humidity;BMP_temperature;BMP_pressure;BME280_temperature;BME280_humidity;BME280_pressure;Samples;Min_cycle;Max_cycle;Signal;HPM_P1;HPM_P2
2021/12/26 00:01:23;;;;;;;20.10;14.03;;;4.50;99.90;;;;;;5042612;28;20484;-70
2021/12/26 00:03:52;;;;;;;17.73;13.40;;;4.50;99.90;;;;;;5039974;28;20531;-70
2021/12/26 00:06:25;;;;;;;19.80;14.20;;;4.50;99.90;;;;;;5030336;22;20578;-71
2021/12/26 00:08:54;;;;;;;17.43;12.93;;;4.60;99.90;;;;;;5015718;28;20447;-69
2021/12/26 00:11:21;;;;;;;15.80;12.47;;;4.60;99.90;;;;;;5020753;28;20452;-70
2021/12/26 00:13:50;;;;;;;16.87;12.23;;;4.60;99.90;;;;;;5019770;28;20448;-70
2021/12/26 00:16:17;;;;;;;18.47;12.93;;;4.60;99.90;;;;;;5016709;28;20991;-71
2021/12/26 00:18:46;;;;;;;26.23;13.93;;;4.50;99.90;;;;;;5015678;28;20542;-70
2021/12/26 00:21:15;;;;;;;19.37;12.67;;;4.50;99.90;;;;;;5019547;28;20450;-70
2021/12/26 00:23:43;;;;;;;16.60;13.70;;;4.50;99.90;;;;;;5019384;28;20445;-70
2021/12/26 00:26:10;;;;;;;18.13;13.10;;;4.60;99.90;;;;;;5015029;28;20829;-70
2021/12/26 00:28:37;;;;;;;17.50;13.50;;;4.60;99.90;;;;;;5020938;28;20446;-71
2021/12/26 00:31:06;;;;;;;17.87;12.43;;;4.60;99.90;;;;;;5020484;28;20481;-70
2021/12/26 00:33:33;;;;;;;19.20;13.03;;;4.60;99.90;;;;;;5022047;28;20828;-70
2021/12/26 00:36:00;;;;;;;22.67;14.53;;;4.50;99.90;;;;;;5020998;28;20457;-71
2021/12/26 00:38:27;;;;;;;19.40;12.87;;;4.50;99.90;;;;;;5022564;28;20440;-71
2021/12/26 00:40:55;;;;;;;21.37;15.50;;;4.50;99.90;;;;;;5020998;28;20444;-70
2021/12/26 00:43:22;;;;;;;21.33;14.90;;;4.60;99.90;;;;;;5020714;28;20481;-70
2021/12/26 00:45:49;;;;;;;19.60;14.50;;;4.60;99.90;;;;;;5020029;28;20487;-71
2021/12/26 00:48:16;;;;;;;18.20;13.70;;;4.50;99.90;;;;;;5000131;28;21237;-71
2021/12/26 00:50:43;;;;;;;20.80;15.20;;;4.50;99.90;;;;;;5006758;28;20460;-71
2021/12/26 00:53:10;;;;;;;20.43;15.00;;;4.60;99.90;;;;;;5006301;28;20526;-70
2021/12/26 00:55:38;;;;;;;20.37;14.70;;;4.60;99.90;;;;;;5009962;28;21142;-70
2021/12/26 00:58:06;;;;;;;21.60;15.80;;;4.50;99.90;;;;;;5017048;28;20534;-71
2021/12/26 01:00:41;;;;;;;23.57;15.70;;;4.50;99.90;;;;;;5008255;28;20848;-71
2021/12/26 01:03:10;;;;;;;23.90;16.60;;;4.50;99.90;;;;;;5006867;28;20493;-71
2021/12/26 01:05:39;;;;;;;24.27;17.43;;;4.50;99.90;;;;;;5007047;28;20585;-71
2021/12/26 01:08:09;;;;;;;24.30;17.30;;;4.60;99.90;;;;;;5007469;28;20460;-70
2021/12/26 01:10:38;;;;;;;27.50;18.17;;;4.50;99.90;;;;;;5008133;28;20451;-71
2021/12/26 01:13:15;;;;;;;24.93;17.73;;;4.60;99.90;;;;;;5008518;28;20450;-71
2021/12/26 01:15:43;;;;;;;28.57;18.57;;;4.50;99.90;;;;;;5008160;28;20478;-71
2021/12/26 01:18:10;;;;;;;26.20;17.93;;;4.50;99.90;;;;;;5007015;28;20889;-71
2021/12/26 01:20:43;;;;;;;30.33;19.77;;;4.50;99.90;;;;;;5006936;28;20486;-70
2021/12/26 01:23:12;;;;;;;29.23;19.23;;;4.50;99.90;;;;;;5006108;28;20523;-71
2021/12/26 01:25:39;;;;;;;30.73;19.77;;;4.50;99.90;;;;;;5006539;28;20470;-71
2021/12/26 01:28:08;;;;;;;29.80;19.70;;;4.50;99.90;;;;;;5007889;28;20446;-71
2021/12/26 01:30:38;;;;;;;28.60;20.57;;;4.40;99.90;;;;;;5012121;28;20530;-71
2021/12/26 01:33:06;;;;;;;32.10;20.87;;;4.40;99.90;;;;;;5006871;28;20816;-71
2021/12/26 01:35:33;;;;;;;27.77;18.30;;;4.40;99.90;;;;;;5005186;28;20517;-71
2021/12/26 01:38:00;;;;;;;30.43;20.87;;;4.40;99.90;;;;;;5006333;28;20456;-71
2021/12/26 01:40:27;;;;;;;30.83;20.60;;;4.40;99.90;;;;;;5007000;28;20545;-71
2021/12/26 01:42:54;;;;;;;32.03;21.10;;;4.30;99.90;;;;;;5006013;28;20572;-71
2021/12/26 01:45:22;;;;;;;36.37;21.67;;;4.30;99.90;;;;;;5006139;28;20470;-71
2021/12/26 01:47:49;;;;;;;28.97;19.13;;;4.30;99.90;;;;;;5006703;28;20537;-72
2021/12/26 01:50:16;;;;;;;33.83;20.90;;;4.30;99.90;;;;;;5006050;28;20450;-72
2021/12/26 01:52:43;;;;;;;30.20;21.10;;;4.30;99.90;;;;;;5006929;28;20450;-72
2021/12/26 01:55:23;;;;;;;31.23;20.47;;;4.20;99.90;;;;;;5006847;28;20541;-71
2021/12/26 01:57:52;;;;;;;31.30;20.00;;;4.30;99.90;;;;;;5018338;28;20987;-71
2021/12/26 02:00:19;;;;;;;30.03;19.43;;;4.30;99.90;;;;;;5012125;28;20450;-70
2021/12/26 02:02:49;;;;;;;32.40;19.50;;;4.30;99.90;;;;;;5012278;28;20484;-71
2021/12/26 02:05:17;;;;;;;29.00;19.03;;;4.30;99.90;;;;;;5013455;28;20536;-71
2021/12/26 02:07:44;;;;;;;32.07;20.00;;;4.30;99.90;;;;;;5014152;28;20882;-72
2021/12/26 02:10:11;;;;;;;29.97;19.20;;;4.40;99.90;;;;;;5016156;28;20461;-72
2021/12/26 02:12:38;;;;;;;30.33;19.43;;;4.50;99.90;;;;;;5016043;28;20529;-72
2021/12/26 02:15:06;;;;;;;29.50;20.33;;;4.50;99.90;;;;;;5014646;28;20981;-72
2021/12/26 02:17:33;;;;;;;30.80;19.77;;;4.50;99.90;;;;;;5013303;28;20492;-71
2021/12/26 02:20:21;;;;;;;34.80;21.03;;;4.40;99.90;;;;;;5011377;28;20485;-71
2021/12/26 02:22:55;;;;;;;27.73;18.63;;;4.50;99.90;;;;;;5012092;28;20481;-72
2021/12/26 02:27:30;;;;;;;31.70;20.00;;;4.50;99.90;;;;;;5011443;28;20470;-72
2021/12/26 02:28:18;;;;;;;29.50;18.77;;;4.50;99.90;;;;;;5011520;28;20585;-72
2021/12/26 02:30:46;;;;;;;27.90;19.03;;;4.50;99.90;;;;;;5011743;28;20504;-72
2021/12/26 02:33:13;;;;;;;25.60;18.03;;;4.50;99.90;;;;;;5011513;28;20447;-71
2021/12/26 02:35:43;;;;;;;25.53;19.07;;;4.50;99.90;;;;;;5011243;28;20470;-71
2021/12/26 02:38:11;;;;;;;27.93;19.07;;;4.50;99.90;;;;;;5011202;28;20448;-71
2021/12/26 02:40:40;;;;;;;24.33;16.70;;;4.50;99.90;;;;;;5011390;28;20460;-71
2021/12/26 02:43:08;;;;;;;26.70;17.63;;;4.50;99.90;;;;;;5011309;28;21045;-71
2021/12/26 02:45:36;;;;;;;32.50;19.20;;;4.50;99.90;;;;;;5010669;28;21160;-71
2021/12/26 02:48:07;;;;;;;25.37;17.73;;;4.50;99.90;;;;;;5011000;28;20986;-71
2021/12/26 02:50:34;;;;;;;26.17;17.77;;;4.60;99.90;;;;;;5010904;28;20486;-71
2021/12/26 02:53:04;;;;;;;27.20;17.30;;;4.60;99.90;;;;;;5010987;28;20954;-70
2021/12/26 02:55:31;;;;;;;25.33;17.70;;;4.60;99.90;;;;;;5010685;28;20549;-71
2021/12/26 02:58:00;;;;;;;27.53;17.87;;;4.60;99.90;;;;;;5011115;28;20446;-71
2021/12/26 03:00:29;;;;;;;25.70;16.90;;;4.60;99.90;;;;;;5011051;28;20457;-71
2021/12/26 03:02:59;;;;;;;25.90;18.20;;;4.50;99.90;;;;;;5010860;28;20528;-69
2021/12/26 03:05:28;;;;;;;21.40;15.90;;;4.50;99.90;;;;;;5010715;28;20470;-72
2021/12/26 03:07:55;;;;;;;22.43;15.00;;;4.50;99.90;;;;;;5010125;28;20442;-71
2021/12/26 03:10:26;;;;;;;22.47;15.83;;;4.60;99.90;;;;;;5012003;28;21016;-72
2021/12/26 03:12:54;;;;;;;22.87;16.10;;;4.60;99.90;;;;;;5012372;28;20484;-71
2021/12/26 03:15:22;;;;;;;36.50;18.70;;;4.60;99.90;;;;;;5011883;28;20470;-72
2021/12/26 03:17:50;;;;;;;25.23;17.37;;;4.60;99.90;;;;;;5012421;28;20533;-72
2021/12/26 03:20:20;;;;;;;23.67;16.57;;;4.60;99.90;;;;;;5013067;28;20452;-72
2021/12/26 03:22:47;;;;;;;24.97;17.10;;;4.70;99.90;;;;;;5012512;28;20490;-71
2021/12/26 03:25:17;;;;;;;25.03;18.47;;;4.70;99.90;;;;;;5011981;28;20928;-72
2021/12/26 03:27:46;;;;;;;25.53;17.70;;;4.70;99.90;;;;;;5012047;28;20454;-72
2021/12/26 03:30:16;;;;;;;25.10;16.47;;;4.70;99.90;;;;;;5012085;28;20458;-72
2021/12/26 03:32:43;;;;;;;25.10;17.50;;;4.70;99.90;;;;;;5011626;28;20454;-72
2021/12/26 03:35:11;;;;;;;23.40;15.67;;;4.70;99.90;;;;;;5011679;28;20557;-72
2021/12/26 03:37:39;;;;;;;24.37;16.60;;;4.70;99.90;;;;;;5012106;28;20953;-73
2021/12/26 03:40:07;;;;;;;21.20;16.40;;;4.70;99.90;;;;;;5012175;28;20447;-72
2021/12/26 03:42:34;;;;;;;23.50;17.50;;;4.70;99.90;;;;;;5011233;28;20482;-72
2021/12/26 03:45:04;;;;;;;21.83;16.83;;;4.70;99.90;;;;;;5011826;28;20926;-71
2021/12/26 03:47:32;;;;;;;23.93;16.13;;;4.70;99.90;;;;;;5012116;28;20438;-71
2021/12/26 03:49:59;;;;;;;26.37;17.33;;;4.70;99.90;;;;;;5010175;28;20945;-71
2021/12/26 03:52:27;;;;;;;26.83;17.37;;;4.70;99.90;;;;;;5010003;28;20478;-71
2021/12/26 03:54:54;;;;;;;23.53;16.80;;;4.70;99.90;;;;;;5009443;28;20450;-72
2021/12/26 03:57:22;;;;;;;26.40;19.70;;;4.70;99.90;;;;;;5010019;28;20476;-72
2021/12/26 03:59:49;;;;;;;26.40;17.97;;;4.70;99.90;;;;;;5009981;28;20464;-72
2021/12/26 04:02:18;;;;;;;26.73;18.30;;;4.70;99.90;;;;;;5009738;28;20469;-72
2021/12/26 04:04:45;;;;;;;28.10;19.33;;;4.70;99.90;;;;;;5009449;28;20453;-72
2021/12/26 04:07:13;;;;;;;32.23;19.20;;;4.60;99.90;;;;;;5009376;28;20466;-71
2021/12/26 04:09:40;;;;;;;28.87;19.40;;;4.60;99.90;;;;;;5009694;28;20457;-70
2021/12/26 04:12:08;;;;;;;33.43;19.93;;;4.60;99.90;;;;;;5009726;28;20453;-72
2021/12/26 04:14:35;;;;;;;28.13;18.13;;;4.50;99.90;;;;;;5009229;28;20529;-71
2021/12/26 04:17:02;;;;;;;33.70;21.10;;;4.50;99.90;;;;;;5009328;28;20471;-71
2021/12/26 04:19:31;;;;;;;29.33;18.97;;;4.50;99.90;;;;;;5009097;28;20450;-74
2021/12/26 04:21:57;;;;;;;30.23;20.20;;;4.50;99.90;;;;;;5009444;28;20450;-71
2021/12/26 04:24:25;;;;;;;28.50;19.13;;;4.50;99.90;;;;;;5009029;28;21200;-72
2021/12/26 04:26:52;;;;;;;31.07;20.03;;;4.50;99.90;;;;;;5009402;28;20513;-71
2021/12/26 04:29:19;;;;;;;30.97;21.50;;;4.50;99.90;;;;;;5009280;28;20454;-71
2021/12/26 04:31:45;;;;;;;29.23;19.50;;;4.50;99.90;;;;;;5009023;28;20521;-72
2021/12/26 04:34:12;;;;;;;32.03;20.13;;;4.50;99.90;;;;;;5008971;28;20454;-72
2021/12/26 04:36:40;;;;;;;32.30;20.40;;;4.50;99.90;;;;;;5008371;28;20466;-71
2021/12/26 04:39:07;;;;;;;28.30;18.90;;;4.50;99.90;;;;;;5008767;28;20533;-70
2021/12/26 04:41:34;;;;;;;33.17;21.77;;;4.50;99.90;;;;;;5008792;28;21018;-71
2021/12/26 04:44:01;;;;;;;31.47;20.57;;;4.50;99.90;;;;;;5009010;28;20478;-72
2021/12/26 04:46:28;;;;;;;29.90;19.70;;;4.50;99.90;;;;;;5008710;28;20470;-71
2021/12/26 04:48:55;;;;;;;34.40;23.03;;;4.50;99.90;;;;;;5008719;28;20449;-71
2021/12/26 04:51:22;;;;;;;34.47;22.33;;;4.50;99.90;;;;;;5008921;28;20541;-71
2021/12/26 04:53:50;;;;;;;34.23;20.67;;;4.50;99.90;;;;;;5009079;28;21000;-72
2021/12/26 04:56:17;;;;;;;31.50;18.57;;;4.50;99.90;;;;;;5008760;28;20469;-71
2021/12/26 04:58:44;;;;;;;32.77;21.70;;;4.50;99.90;;;;;;5009088;28;20446;-72
2021/12/26 05:01:11;;;;;;;31.03;20.60;;;4.40;99.90;;;;;;5009174;28;20438;-72
2021/12/26 05:03:38;;;;;;;32.40;20.23;;;4.50;99.90;;;;;;5009681;28;20593;-71
2021/12/26 05:06:05;;;;;;;34.77;20.73;;;4.50;99.90;;;;;;5009150;28;20509;-71
2021/12/26 05:08:32;;;;;;;36.13;21.50;;;4.50;99.90;;;;;;5008798;28;20458;-71
2021/12/26 05:11:00;;;;;;;30.70;20.13;;;4.50;99.90;;;;;;5008712;28;20455;-71
2021/12/26 05:13:27;;;;;;;29.87;20.47;;;4.50;99.90;;;;;;5009124;28;20454;-71
2021/12/26 05:15:54;;;;;;;28.07;19.33;;;4.50;99.90;;;;;;5009840;28;20549;-71
2021/12/26 05:18:21;;;;;;;31.10;20.27;;;4.60;99.90;;;;;;5010135;28;20456;-72
2021/12/26 05:20:48;;;;;;;29.67;19.13;;;4.60;99.90;;;;;;5010057;28;20457;-71
2021/12/26 05:23:15;;;;;;;28.17;18.87;;;4.60;99.90;;;;;;5008623;28;20474;-71
2021/12/26 05:25:42;;;;;;;30.80;20.30;;;4.60;99.90;;;;;;5008131;28;20476;-71
2021/12/26 05:28:10;;;;;;;29.97;21.13;;;4.60;99.90;;;;;;5008516;28;20442;-71
2021/12/26 05:30:37;;;;;;;30.10;20.33;;;4.60;99.90;;;;;;5009502;28;20477;-72
2021/12/26 05:33:04;;;;;;;37.43;21.53;;;4.60;99.90;;;;;;5012344;28;20445;-70
2021/12/26 05:35:31;;;;;;;31.97;20.00;;;4.60;99.90;;;;;;5011949;28;20462;-72
2021/12/26 05:37:59;;;;;;;30.10;18.50;;;4.60;99.90;;;;;;5012229;28;20497;-71
2021/12/26 05:40:26;;;;;;;31.23;20.43;;;4.60;99.90;;;;;;5011976;28;20537;-71
2021/12/26 05:42:53;;;;;;;31.07;19.90;;;4.60;99.90;;;;;;5012239;28;20461;-71
2021/12/26 05:45:21;;;;;;;35.70;20.07;;;4.60;99.90;;;;;;5011886;28;20911;-71
2021/12/26 05:47:48;;;;;;;33.63;20.50;;;4.60;99.90;;;;;;5012072;28;20465;-72
2021/12/26 05:50:18;;;;;;;31.37;19.33;;;4.60;99.90;;;;;;5011978;28;20938;-71
2021/12/26 05:52:45;;;;;;;30.47;20.30;;;4.60;99.90;;;;;;5012198;28;20889;-71
2021/12/26 05:55:13;;;;;;;33.40;21.40;;;4.70;99.90;;;;;;5011664;28;20478;-71
2021/12/26 05:57:40;;;;;;;32.33;19.90;;;4.70;99.90;;;;;;5011964;28;20457;-71
2021/12/26 06:00:10;;;;;;;31.27;19.87;;;4.60;99.90;;;;;;5011778;28;20450;-71
2021/12/26 06:02:38;;;;;;;33.17;21.27;;;4.60;99.90;;;;;;5012041;28;20476;-71
2021/12/26 06:05:06;;;;;;;29.90;19.40;;;4.60;99.90;;;;;;5011047;28;20481;-71
2021/12/26 06:07:33;;;;;;;31.93;19.97;;;4.60;99.90;;;;;;5011782;28;20458;-71
2021/12/26 06:10:00;;;;;;;32.67;21.50;;;4.60;99.90;;;;;;5011827;28;20452;-71
2021/12/26 06:12:26;;;;;;;33.10;19.87;;;4.60;99.90;;;;;;5011594;28;21084;-71
2021/12/26 06:14:53;;;;;;;33.93;21.27;;;4.60;99.90;;;;;;5011260;28;20460;-71
2021/12/26 06:17:20;;;;;;;34.10;22.23;;;4.70;99.90;;;;;;5011338;28;20460;-71
2021/12/26 06:19:48;;;;;;;33.33;20.37;;;4.60;99.90;;;;;;5011696;28;20536;-71
2021/12/26 06:22:16;;;;;;;33.30;21.07;;;4.60;99.90;;;;;;5011390;28;20454;-71
2021/12/26 06:24:43;;;;;;;31.23;21.33;;;4.60;99.90;;;;;;5010808;28;20485;-71
2021/12/26 06:27:10;;;;;;;37.13;22.23;;;4.60;99.90;;;;;;5011334;28;20443;-71
2021/12/26 06:29:37;;;;;;;35.50;21.00;;;4.50;99.90;;;;;;5011192;28;20457;-72
2021/12/26 06:32:04;;;;;;;34.13;21.90;;;4.50;99.90;;;;;;5012728;28;20459;-72
2021/12/26 06:34:31;;;;;;;37.87;22.00;;;4.40;99.90;;;;;;5027743;28;20870;-71
2021/12/26 06:37:00;;;;;;;27.57;19.30;;;4.50;99.90;;;;;;5023055;28;20472;-70
2021/12/26 06:39:27;;;;;;;40.17;22.20;;;4.50;99.90;;;;;;5012077;28;20549;-71
2021/12/26 06:41:53;;;;;;;33.10;20.10;;;4.40;99.90;;;;;;5010825;28;20445;-71
2021/12/26 06:44:20;;;;;;;37.27;21.53;;;4.40;99.90;;;;;;5010701;28;20852;-70
2021/12/26 06:46:47;;;;;;;34.50;20.60;;;4.50;99.90;;;;;;5010078;28;20582;-71
2021/12/26 06:49:17;;;;;;;31.90;21.03;;;4.50;99.90;;;;;;5010491;28;20461;-71
2021/12/26 06:51:44;;;;;;;31.63;19.77;;;4.50;99.90;;;;;;5010406;28;20462;-71
2021/12/26 06:54:12;;;;;;;33.73;21.47;;;4.50;99.90;;;;;;5010272;28;20521;-71
2021/12/26 06:56:39;;;;;;;32.93;20.50;;;4.60;99.90;;;;;;5010666;28;20478;-71
2021/12/26 06:59:07;;;;;;;30.63;21.00;;;4.60;99.90;;;;;;5011771;28;20457;-71
2021/12/26 07:01:34;;;;;;;31.50;20.40;;;4.60;99.90;;;;;;5011100;28;20461;-71
2021/12/26 07:04:01;;;;;;;34.90;22.10;;;4.60;99.90;;;;;;5010140;28;20474;-71
2021/12/26 07:06:28;;;;;;;37.10;22.63;;;4.70;99.90;;;;;;5009615;28;20482;-71
2021/12/26 07:08:55;;;;;;;37.27;22.60;;;4.70;99.90;;;;;;5010086;28;20453;-71
2021/12/26 07:11:23;;;;;;;31.30;21.07;;;4.70;99.90;;;;;;5010280;28;20457;-71
2021/12/26 07:13:50;;;;;;;33.53;21.80;;;4.60;99.90;;;;;;5009847;28;20454;-72
2021/12/26 07:16:17;;;;;;;37.10;22.80;;;4.60;99.90;;;;;;5009705;28;20470;-71
2021/12/26 07:18:43;;;;;;;33.47;21.27;;;4.60;99.90;;;;;;5010110;28;20859;-70
2021/12/26 07:21:10;;;;;;;33.43;20.30;;;4.60;99.90;;;;;;5009883;28;20541;-70
2021/12/26 07:23:37;;;;;;;30.47;19.87;;;4.60;99.90;;;;;;5009624;28;20509;-71
2021/12/26 07:26:04;;;;;;;32.77;21.13;;;4.60;99.90;;;;;;5009685;28;20841;-72
2021/12/26 07:28:32;;;;;;;36.33;22.17;;;4.50;99.90;;;;;;5009912;28;20450;-71
2021/12/26 07:30:59;;;;;;;29.87;20.47;;;4.60;99.90;;;;;;5009578;28;20485;-71
2021/12/26 07:33:26;;;;;;;32.10;21.40;;;4.70;99.90;;;;;;5009653;28;20830;-72
2021/12/26 07:35:53;;;;;;;32.07;22.83;;;4.80;99.90;;;;;;5009223;28;20482;-71
2021/12/26 07:38:20;;;;;;;33.37;20.60;;;4.80;99.90;;;;;;5009538;28;20941;-71
2021/12/26 07:40:48;;;;;;;25.00;17.60;;;4.80;99.90;;;;;;5009640;28;20455;-69
2021/12/26 07:43:15;;;;;;;32.00;19.33;;;4.80;99.90;;;;;;5009685;28;20457;-71
2021/12/26 07:45:44;;;;;;;31.83;19.50;;;4.80;99.90;;;;;;5009028;28;20482;-71
2021/12/26 07:48:11;;;;;;;28.63;18.80;;;4.90;99.90;;;;;;5009388;28;20453;-71
2021/12/26 07:50:38;;;;;;;34.07;20.80;;;4.90;99.90;;;;;;5009389;28;20458;-77
2021/12/26 07:53:09;;;;;;;36.77;21.50;;;4.90;99.90;;;;;;5008641;28;20478;-72
2021/12/26 07:55:36;;;;;;;31.23;20.00;;;5.00;99.90;;;;;;5009098;28;20462;-71
2021/12/26 07:58:03;;;;;;;35.90;21.70;;;5.00;99.90;;;;;;5009094;28;20537;-71
2021/12/26 08:00:30;;;;;;;30.83;19.50;;;5.00;99.90;;;;;;5009272;28;20448;-72
2021/12/26 08:03:00;;;;;;;27.87;18.77;;;5.10;99.90;;;;;;5009212;28;20446;-72
2021/12/26 08:05:27;;;;;;;29.87;19.63;;;5.10;99.90;;;;;;5009053;28;20482;-72
2021/12/26 08:07:54;;;;;;;28.00;18.03;;;5.20;99.90;;;;;;5009518;28;20525;-72
2021/12/26 08:10:21;;;;;;;26.40;18.30;;;5.20;99.90;;;;;;5009322;28;20446;-72
2021/12/26 08:12:48;;;;;;;26.93;18.40;;;5.20;99.90;;;;;;5009191;28;20479;-72
2021/12/26 08:15:15;;;;;;;27.93;16.23;;;5.30;99.90;;;;;;5008770;28;20459;-71
2021/12/26 08:17:42;;;;;;;24.60;17.40;;;5.30;99.90;;;;;;5008241;28;20447;-74
2021/12/26 08:20:11;;;;;;;23.70;16.17;;;5.30;99.90;;;;;;5007513;28;20457;-73
2021/12/26 08:22:38;;;;;;;23.73;18.33;;;5.30;99.90;;;;;;4999905;28;20458;-72
2021/12/26 08:25:06;;;;;;;24.70;16.73;;;5.30;99.90;;;;;;5008048;28;20486;-70
2021/12/26 08:27:33;;;;;;;22.00;16.20;;;5.20;99.90;;;;;;5008551;28;20450;-72
2021/12/26 08:30:00;;;;;;;22.63;16.70;;;5.30;99.90;;;;;;5008746;28;20452;-71
2021/12/26 08:32:29;;;;;;;23.17;17.00;;;5.30;99.90;;;;;;5008458;28;20573;-70
2021/12/26 08:34:56;;;;;;;22.90;15.60;;;5.40;99.90;;;;;;5007054;28;20454;-70
2021/12/26 08:37:26;;;;;;;21.70;15.90;;;5.50;99.90;;;;;;5007763;28;21101;-70
2021/12/26 08:39:53;;;;;;;24.27;16.23;;;5.40;99.90;;;;;;5006177;28;20453;-72
2021/12/26 08:42:20;;;;;;;22.23;15.30;;;5.40;99.90;;;;;;5007816;28;20830;-72
2021/12/26 08:44:47;;;;;;;25.70;17.30;;;5.30;99.90;;;;;;5007843;28;20496;-71
2021/12/26 08:47:14;;;;;;;26.63;18.17;;;5.40;99.90;;;;;;5003208;28;20538;-72
2021/12/26 08:49:41;;;;;;;20.27;15.00;;;5.50;99.90;;;;;;4999540;28;20450;-72
2021/12/26 08:52:09;;;;;;;25.13;16.63;;;5.50;99.90;;;;;;4996726;28;20482;-72
2021/12/26 08:54:38;;;;;;;22.00;15.57;;;5.60;99.90;;;;;;4996383;28;20459;-72
2021/12/26 08:57:07;;;;;;;21.60;16.33;;;5.60;99.90;;;;;;5006952;28;20492;-75
2021/12/26 08:59:34;;;;;;;22.90;15.47;;;5.70;99.90;;;;;;5008680;28;20450;-73
2021/12/26 09:02:03;;;;;;;22.50;16.40;;;5.80;99.90;;;;;;5001990;28;20447;-73
2021/12/26 09:04:30;;;;;;;21.00;15.80;;;5.80;99.90;;;;;;4995735;28;20514;-72
2021/12/26 09:06:58;;;;;;;21.70;16.97;;;5.80;99.90;;;;;;5004147;28;20482;-71
2021/12/26 09:09:25;;;;;;;22.97;17.73;;;5.90;99.90;;;;;;5004409;28;20569;-71
2021/12/26 09:11:54;;;;;;;20.83;15.23;;;5.80;99.90;;;;;;4996273;28;20525;-71
2021/12/26 09:14:20;;;;;;;21.43;16.33;;;5.80;99.90;;;;;;5003611;28;20449;-73
2021/12/26 09:16:47;;;;;;;23.53;18.17;;;5.80;99.90;;;;;;5004997;28;20470;-73
2021/12/26 09:19:14;;;;;;;21.13;15.23;;;6.00;99.90;;;;;;5002884;28;20446;-72
2021/12/26 09:21:41;;;;;;;23.83;15.97;;;6.00;99.90;;;;;;5006207;28;20450;-71
2021/12/26 09:24:08;;;;;;;19.50;15.83;;;5.90;99.90;;;;;;5009414;28;21124;-72
2021/12/26 09:26:35;;;;;;;22.27;18.10;;;6.00;99.90;;;;;;5007480;28;20486;-72
2021/12/26 09:29:03;;;;;;;21.47;16.13;;;6.10;99.90;;;;;;5007579;28;20618;-70
2021/12/26 09:31:30;;;;;;;20.30;14.87;;;6.30;99.90;;;;;;5000873;28;20484;-71
2021/12/26 09:33:57;;;;;;;22.17;15.40;;;6.40;99.90;;;;;;5003299;28;20466;-71
2021/12/26 09:36:24;;;;;;;23.47;17.93;;;6.60;99.90;;;;;;5001333;28;20474;-73
2021/12/26 09:38:51;;;;;;;18.40;14.07;;;6.70;99.90;;;;;;5007802;28;20450;-71
2021/12/26 09:41:18;;;;;;;18.77;14.37;;;6.80;99.90;;;;;;5000587;28;20458;-72
2021/12/26 09:43:45;;;;;;;21.23;15.50;;;6.80;99.90;;;;;;5006678;28;20849;-73
2021/12/26 09:46:13;;;;;;;20.40;14.50;;;6.90;99.90;;;;;;5007061;28;20577;-72
2021/12/26 09:48:40;;;;;;;18.67;14.87;;;6.90;99.90;;;;;;5006920;28;20513;-72
2021/12/26 09:51:07;;;;;;;19.83;16.03;;;6.80;99.90;;;;;;5007537;28;20464;-72
2021/12/26 09:53:38;;;;;;;21.10;15.13;;;6.70;99.90;;;;;;5007508;28;20821;-71
2021/12/26 09:56:07;;;;;;;17.73;13.50;;;6.70;99.90;;;;;;5007393;28;20466;-72
2021/12/26 09:58:34;;;;;;;18.53;14.17;;;6.80;99.90;;;;;;5007748;28;20685;-73
2021/12/26 10:01:02;;;;;;;18.90;14.77;;;6.70;99.90;;;;;;5007548;28;20956;-72
2021/12/26 10:03:33;;;;;;;23.83;16.83;;;7.00;99.90;;;;;;5007538;28;20486;-72
2021/12/26 10:06:08;;;;;;;21.00;15.13;;;7.20;99.90;;;;;;5006799;28;20515;-72
2021/12/26 10:08:51;;;;;;;21.33;16.03;;;7.50;99.90;;;;;;5007576;28;20457;-72
2021/12/26 10:11:20;;;;;;;25.20;18.80;;;7.50;99.90;;;;;;5007573;28;20489;-71
2021/12/26 10:13:49;;;;;;;21.03;15.83;;;7.50;99.90;;;;;;5007514;28;20499;-72
2021/12/26 10:16:18;;;;;;;20.17;16.47;;;7.70;99.90;;;;;;5007402;28;20463;-72
2021/12/26 10:18:48;;;;;;;21.30;15.50;;;7.80;99.90;;;;;;5011318;28;20481;-72
2021/12/26 10:21:36;;;;;;;19.90;14.97;;;8.00;99.90;;;;;;5011046;28;20456;-73
2021/12/26 10:24:13;;;;;;;18.60;14.40;;;8.20;99.90;;;;;;5010977;28;20457;-72
2021/12/26 10:26:42;;;;;;;19.70;15.63;;;8.20;99.90;;;;;;5010516;28;20472;-73
2021/12/26 10:29:12;;;;;;;20.60;14.97;;;7.90;99.90;;;;;;5011130;28;20460;-72
2021/12/26 10:31:45;;;;;;;18.60;15.27;;;7.80;99.90;;;;;;5011063;28;20979;-73
2021/12/26 10:34:20;;;;;;;20.30;15.80;;;7.90;99.90;;;;;;5010994;28;20783;-72
2021/12/26 10:36:49;;;;;;;18.87;15.47;;;7.90;99.90;;;;;;5010555;28;20478;-73
2021/12/26 10:39:18;;;;;;;19.47;16.00;;;8.20;99.90;;;;;;5010500;28;20450;-72
2021/12/26 10:41:47;;;;;;;20.40;13.43;;;8.40;99.90;;;;;;5010573;28;20469;-72
2021/12/26 10:44:25;;;;;;;18.93;13.70;;;8.50;99.90;;;;;;5010783;28;20454;-74
2021/12/26 10:46:57;;;;;;;19.33;14.87;;;8.50;99.90;;;;;;5010403;28;20482;-73
2021/12/26 10:49:32;;;;;;;18.00;14.50;;;8.70;99.90;;;;;;5010425;28;20446;-71
2021/12/26 10:52:00;;;;;;;15.37;12.40;;;9.00;99.90;;;;;;5010429;28;20532;-71
2021/12/26 10:54:31;;;;;;;16.90;14.10;;;9.10;99.90;;;;;;5009997;28;20454;-70
2021/12/26 10:57:11;;;;;;;15.90;13.20;;;9.10;99.90;;;;;;5010508;28;20482;-71
2021/12/26 10:59:39;;;;;;;14.77;12.63;;;9.30;99.90;;;;;;5010236;28;20944;-71
2021/12/26 11:02:07;;;;;;;14.67;12.50;;;9.20;99.90;;;;;;5010183;28;20446;-71
2021/12/26 11:04:37;;;;;;;15.97;12.97;;;9.30;99.90;;;;;;5010020;28;20537;-72
2021/12/26 11:07:08;;;;;;;15.83;13.60;;;9.30;99.90;;;;;;5010278;28;20900;-71
2021/12/26 11:09:36;;;;;;;15.10;13.33;;;9.20;99.90;;;;;;5010120;28;20442;-72
2021/12/26 11:12:07;;;;;;;13.70;11.47;;;9.00;99.90;;;;;;5010187;28;20484;-71
2021/12/26 11:14:54;;;;;;;14.97;13.20;;;8.90;99.90;;;;;;5010164;28;20497;-72
2021/12/26 11:17:29;;;;;;;15.90;13.13;;;8.90;99.90;;;;;;5010072;28;20442;-72
2021/12/26 11:19:57;;;;;;;15.97;12.10;;;8.70;99.90;;;;;;5010296;28;20500;-72
2021/12/26 11:22:25;;;;;;;14.77;11.90;;;8.80;99.90;;;;;;5009925;28;20972;-72
2021/12/26 11:24:53;;;;;;;14.00;11.03;;;8.80;99.90;;;;;;5009359;28;21060;-72
2021/12/26 11:27:20;;;;;;;13.00;10.83;;;9.00;99.90;;;;;;5009586;28;20545;-72
2021/12/26 11:29:48;;;;;;;14.30;12.47;;;9.00;99.90;;;;;;5009389;28;20549;-72
2021/12/26 11:32:16;;;;;;;14.57;11.40;;;9.10;99.90;;;;;;5009885;28;20497;-72
2021/12/26 11:34:45;;;;;;;12.30;10.50;;;9.10;99.90;;;;;;5009459;28;20826;-72
2021/12/26 11:37:14;;;;;;;12.47;10.93;;;9.20;99.90;;;;;;5010076;28;20541;-72
2021/12/26 11:39:43;;;;;;;14.20;10.30;;;9.30;99.90;;;;;;5009571;28;20821;-72
2021/12/26 11:42:32;;;;;;;14.27;10.87;;;9.20;99.90;;;;;;5009334;28;20454;-72
2021/12/26 11:45:11;;;;;;;12.30;10.57;;;9.20;99.90;;;;;;5008970;28;20486;-72
2021/12/26 11:48:22;;;;;;;10.63;9.13;;;9.20;99.90;;;;;;5009127;28;20958;-73
2021/12/26 11:51:02;;;;;;;11.00;9.87;;;9.40;99.90;;;;;;5009476;28;20484;-73
2021/12/26 11:53:59;;;;;;;10.70;9.60;;;9.50;99.90;;;;;;5009545;28;20454;-74
2021/12/26 11:56:38;;;;;;;9.17;8.27;;;9.70;99.90;;;;;;5008724;28;20462;-73
2021/12/26 11:59:23;;;;;;;12.33;8.83;;;9.90;99.90;;;;;;5009367;28;20452;-72
2021/12/26 12:01:50;;;;;;;9.23;8.00;;;10.00;99.90;;;;;;5009116;28;20438;-71
2021/12/26 12:04:20;;;;;;;11.03;8.90;;;9.90;99.90;;;;;;5008945;28;20465;-71
2021/12/26 12:06:49;;;;;;;10.23;8.70;;;9.90;99.90;;;;;;5007369;28;20595;-72
2021/12/26 12:09:32;;;;;;;14.60;10.60;;;9.80;99.90;;;;;;5008201;28;20930;-72
2021/12/26 12:12:02;;;;;;;11.43;8.60;;;9.90;99.90;;;;;;5008606;28;20446;-71
2021/12/26 12:14:50;;;;;;;9.87;8.53;;;10.00;99.90;;;;;;5008554;28;20536;-71
2021/12/26 12:17:18;;;;;;;9.43;8.53;;;10.20;99.90;;;;;;5008970;28;20446;-71
2021/12/26 12:20:14;;;;;;;11.17;8.77;;;10.50;99.90;;;;;;5008705;28;20545;-71
2021/12/26 12:23:17;;;;;;;8.20;7.40;;;10.60;99.90;;;;;;4963517;28;20462;-71
2021/12/26 12:25:52;;;;;;;8.17;7.10;;;10.70;99.90;;;;;;5003306;28;20533;-71
2021/12/26 12:28:25;;;;;;;8.70;7.30;;;10.70;99.90;;;;;;5008653;28;21016;-71
2021/12/26 12:30:55;;;;;;;8.60;7.37;;;10.70;99.90;;;;;;5008588;28;20451;-72
2021/12/26 12:33:28;;;;;;;8.00;7.00;;;10.70;99.90;;;;;;5008344;28;20450;-72
2021/12/26 12:36:01;;;;;;;7.87;6.67;;;10.70;99.90;;;;;;5008145;28;20471;-72
2021/12/26 12:38:38;;;;;;;8.33;7.43;;;10.60;99.90;;;;;;5008642;28;20543;-72
2021/12/26 12:41:10;;;;;;;6.63;6.03;;;10.60;99.90;;;;;;5008193;28;20461;-72
2021/12/26 12:43:46;;;;;;;8.77;7.77;;;10.50;99.90;;;;;;5008478;28;20504;-72
2021/12/26 12:46:13;;;;;;;8.17;7.23;;;10.50;99.90;;;;;;5007777;28;20496;-71
2021/12/26 12:48:46;;;;;;;8.47;7.67;;;10.60;99.90;;;;;;5008210;28;20457;-72